sensor_id;sensor_type;location;lat;lon;timestamp;P1;durP1;ratioP1;P2;durP2;ratioP2
10473;SDS011;5284;50.446;7.904;2022-09-12T00:03:29;22.75;;;10.15;;
10473;SDS011;5284;50.446;7.904;2022-09-12T00:08:32;26.10;;;11.98;;
10473;SDS011;5284;50.446;7.904;2022-09-12T00:13:35;17.33;;;10.57;;
10473;SDS011;5284;50.446;7.904;2022-09-12T00:18:43;20.92;;;11.15;;
10473;SDS011;5284;50.446;7.904;2022-09-12T00:23:47;25.88;;;12.02;;
10473;SDS011;5284;50.446;7.904;2022-09-12T00:28:50;18.63;;;10.70;;
10473;SDS011;5284;50.446;7.904;2022-09-12T00:33:55;22.63;;;10.23;;
10473;SDS011;5284;50.446;7.904;2022-09-12T00:39:00;21.25;;;11.20;;
10473;SDS011;5284;50.446;7.904;2022-09-12T00:49:42;37.10;;;11.13;;
10473;SDS011;5284;50.446;7.904;2022-09-12T00:54:50;27.80;;;10.20;;
10473;SDS011;5284;50.446;7.904;2022-09-12T00:59:58;19.83;;;9.60;;
10473;SDS011;5284;50.446;7.904;2022-09-12T01:05:07;19.60;;;9.48;;
10473;SDS011;5284;50.446;7.904;2022-09-12T01:10:11;16.65;;;10.25;;
10473;SDS011;5284;50.446;7.904;2022-09-12T01:15:14;20.05;;;10.57;;
10473;SDS011;5284;50.446;7.904;2022-09-12T01:20:25;21.35;;;9.30;;
10473;SDS011;5284;50.446;7.904;2022-09-12T01:25:53;17.05;;;9.20;;
10473;SDS011;5284;50.446;7.904;2022-09-12T01:31:09;20.27;;;10.65;;
10473;SDS011;5284;50.446;7.904;2022-09-12T01:36:25;16.00;;;9.60;;
10473;SDS011;5284;50.446;7.904;2022-09-12T01:41:41;26.55;;;9.68;;
10473;SDS011;5284;50.446;7.904;2022-09-12T01:46:57;18.38;;;9.98;;
10473;SDS011;5284;50.446;7.904;2022-09-12T01:52:04;16.55;;;8.95;;
10473;SDS011;5284;50.446;7.904;2022-09-12T01:57:15;17.42;;;9.43;;
10473;SDS011;5284;50.446;7.904;2022-09-12T02:02:24;19.85;;;9.63;;
10473;SDS011;5284;50.446;7.904;2022-09-12T02:07:34;20.60;;;9.45;;
10473;SDS011;5284;50.446;7.904;2022-09-12T02:12:41;17.40;;;10.00;;
10473;SDS011;5284;50.446;7.904;2022-09-12T02:17:50;24.40;;;9.30;;
10473;SDS011;5284;50.446;7.904;2022-09-12T02:22:55;20.58;;;10.32;;
10473;SDS011;5284;50.446;7.904;2022-09-12T02:28:00;21.35;;;9.73;;
10473;SDS011;5284;50.446;7.904;2022-09-12T02:33:11;17.25;;;8.65;;
10473;SDS011;5284;50.446;7.904;2022-09-12T02:38:23;24.67;;;11.13;;
10473;SDS011;5284;50.446;7.904;2022-09-12T02:48:33;18.10;;;9.15;;
10473;SDS011;5284;50.446;7.904;2022-09-12T02:53:41;15.38;;;8.68;;
10473;SDS011;5284;50.446;7.904;2022-09-12T02:58:44;15.82;;;8.93;;
10473;SDS011;5284;50.446;7.904;2022-09-12T03:03:53;16.58;;;8.70;;
10473;SDS011;5284;50.446;7.904;2022-09-12T03:09:07;15.77;;;9.65;;
10473;SDS011;5284;50.446;7.904;2022-09-12T03:14:21;18.50;;;7.93;;
10473;SDS011;5284;50.446;7.904;2022-09-12T03:19:41;13.60;;;7.57;;
10473;SDS011;5284;50.446;7.904;2022-09-12T03:24:53;13.52;;;7.22;;
10473;SDS011;5284;50.446;7.904;2022-09-12T03:30:04;11.18;;;7.60;;
10473;SDS011;5284;50.446;7.904;2022-09-12T03:35:10;18.92;;;8.25;;
10473;SDS011;5284;50.446;7.904;2022-09-12T03:40:14;21.92;;;8.23;;
10473;SDS011;5284;50.446;7.904;2022-09-12T03:45:18;13.43;;;8.15;;
10473;SDS011;5284;50.446;7.904;2022-09-12T03:50:22;16.77;;;8.60;;
10473;SDS011;5284;50.446;7.904;2022-09-12T03:55:25;19.85;;;8.00;;
10473;SDS011;5284;50.446;7.904;2022-09-12T04:00:28;16.17;;;7.68;;
10473;SDS011;5284;50.446;7.904;2022-09-12T04:05:32;14.82;;;8.75;;
10473;SDS011;5284;50.446;7.904;2022-09-12T04:10:36;15.90;;;8.63;;
10473;SDS011;5284;50.446;7.904;2022-09-12T04:15:39;14.07;;;8.70;;
10473;SDS011;5284;50.446;7.904;2022-09-12T04:20:43;18.35;;;7.70;;
10473;SDS011;5284;50.446;7.904;2022-09-12T04:25:52;15.90;;;7.53;;
10473;SDS011;5284;50.446;7.904;2022-09-12T04:30:59;11.93;;;7.68;;
10473;SDS011;5284;50.446;7.904;2022-09-12T04:36:05;27.45;;;9.57;;
10473;SDS011;5284;50.446;7.904;2022-09-12T04:41:10;79.75;;;13.50;;
10473;SDS011;5284;50.446;7.904;2022-09-12T04:46:14;35.72;;;11.40;;
10473;SDS011;5284;50.446;7.904;2022-09-12T04:51:21;64.30;;;13.95;;
10473;SDS011;5284;50.446;7.904;2022-09-12T04:56:28;66.22;;;12.30;;
10473;SDS011;5284;50.446;7.904;2022-09-12T05:01:31;63.50;;;13.55;;
10473;SDS011;5284;50.446;7.904;2022-09-12T05:06:36;44.67;;;13.82;;
10473;SDS011;5284;50.446;7.904;2022-09-12T05:11:41;53.40;;;13.07;;
10473;SDS011;5284;50.446;7.904;2022-09-12T05:17:05;74.90;;;14.43;;
10473;SDS011;5284;50.446;7.904;2022-09-12T05:22:09;67.95;;;13.70;;
10473;SDS011;5284;50.446;7.904;2022-09-12T05:27:12;72.25;;;14.05;;
10473;SDS011;5284;50.446;7.904;2022-09-12T05:32:14;65.47;;;13.25;;
10473;SDS011;5284;50.446;7.904;2022-09-12T05:37:18;55.42;;;13.10;;
10473;SDS011;5284;50.446;7.904;2022-09-12T05:42:21;53.30;;;12.77;;
10473;SDS011;5284;50.446;7.904;2022-09-12T05:47:24;50.53;;;13.05;;
10473;SDS011;5284;50.446;7.904;2022-09-12T05:52:28;56.65;;;13.02;;
10473;SDS011;5284;50.446;7.904;2022-09-12T05:57:31;60.25;;;11.07;;
10473;SDS011;5284;50.446;7.904;2022-09-12T06:02:34;48.88;;;11.25;;
10473;SDS011;5284;50.446;7.904;2022-09-12T06:07:38;40.25;;;9.73;;
10473;SDS011;5284;50.446;7.904;2022-09-12T06:12:42;48.88;;;9.90;;
10473;SDS011;5284;50.446;7.904;2022-09-12T06:17:47;24.85;;;10.07;;
10473;SDS011;5284;50.446;7.904;2022-09-12T06:22:53;22.00;;;9.73;;
10473;SDS011;5284;50.446;7.904;2022-09-12T06:27:55;50.83;;;10.18;;
10473;SDS011;5284;50.446;7.904;2022-09-12T06:32:58;38.35;;;10.48;;
10473;SDS011;5284;50.446;7.904;2022-09-12T06:38:02;40.13;;;9.80;;
10473;SDS011;5284;50.446;7.904;2022-09-12T06:43:05;42.55;;;9.90;;
10473;SDS011;5284;50.446;7.904;2022-09-12T06:48:08;24.92;;;9.52;;
10473;SDS011;5284;50.446;7.904;2022-09-12T06:53:12;23.88;;;8.48;;
10473;SDS011;5284;50.446;7.904;2022-09-12T06:58:15;32.75;;;8.70;;
10473;SDS011;5284;50.446;7.904;2022-09-12T07:03:17;19.92;;;9.90;;
10473;SDS011;5284;50.446;7.904;2022-09-12T07:08:22;17.67;;;10.05;;
10473;SDS011;5284;50.446;7.904;2022-09-12T07:13:26;17.33;;;9.93;;
10473;SDS011;5284;50.446;7.904;2022-09-12T07:18:28;14.73;;;10.05;;
10473;SDS011;5284;50.446;7.904;2022-09-12T07:23:33;25.90;;;10.10;;
10473;SDS011;5284;50.446;7.904;2022-09-12T07:28:35;16.67;;;10.90;;
10473;SDS011;5284;50.446;7.904;2022-09-12T07:33:38;16.52;;;10.07;;
10473;SDS011;5284;50.446;7.904;2022-09-12T07:38:43;16.70;;;9.65;;
10473;SDS011;5284;50.446;7.904;2022-09-12T07:43:49;18.80;;;11.00;;
10473;SDS011;5284;50.446;7.904;2022-09-12T07:48:55;24.17;;;12.77;;
10473;SDS011;5284;50.446;7.904;2022-09-12T07:54:00;17.65;;;11.05;;
10473;SDS011;5284;50.446;7.904;2022-09-12T07:59:03;14.95;;;10.00;;
10473;SDS011;5284;50.446;7.904;2022-09-12T08:04:06;16.98;;;10.35;;
10473;SDS011;5284;50.446;7.904;2022-09-12T08:09:10;21.42;;;10.40;;
10473;SDS011;5284;50.446;7.904;2022-09-12T08:14:15;22.25;;;11.05;;
10473;SDS011;5284;50.446;7.904;2022-09-12T08:19:18;24.45;;;11.85;;
10473;SDS011;5284;50.446;7.904;2022-09-12T08:24:24;16.20;;;10.30;;
10473;SDS011;5284;50.446;7.904;2022-09-12T08:29:27;22.08;;;11.35;;
10473;SDS011;5284;50.446;7.904;2022-09-12T08:34:30;22.25;;;11.57;;
10473;SDS011;5284;50.446;7.904;2022-09-12T08:39:34;16.60;;;10.65;;
10473;SDS011;5284;50.446;7.904;2022-09-12T08:44:43;27.15;;;11.68;;
10473;SDS011;5284;50.446;7.904;2022-09-12T08:50:09;23.45;;;10.27;;
10473;SDS011;5284;50.446;7.904;2022-09-12T08:55:26;25.05;;;11.88;;
10473;SDS011;5284;50.446;7.904;2022-09-12T09:00:34;20.63;;;13.57;;
10473;SDS011;5284;50.446;7.904;2022-09-12T09:05:44;15.82;;;11.05;;
10473;SDS011;5284;50.446;7.904;2022-09-12T09:10:56;17.38;;;11.23;;
10473;SDS011;5284;50.446;7.904;2022-09-12T09:16:08;19.50;;;11.63;;
10473;SDS011;5284;50.446;7.904;2022-09-12T09:21:19;24.90;;;11.45;;
10473;SDS011;5284;50.446;7.904;2022-09-12T09:26:27;21.85;;;11.07;;
10473;SDS011;5284;50.446;7.904;2022-09-12T09:31:37;31.00;;;13.00;;
10473;SDS011;5284;50.446;7.904;2022-09-12T09:36:43;17.35;;;12.07;;
10473;SDS011;5284;50.446;7.904;2022-09-12T09:41:54;20.52;;;12.15;;
10473;SDS011;5284;50.446;7.904;2022-09-12T09:47:10;17.70;;;10.65;;
10473;SDS011;5284;50.446;7.904;2022-09-12T09:52:15;21.65;;;11.32;;
10473;SDS011;5284;50.446;7.904;2022-09-12T10:03:03;19.75;;;11.93;;
10473;SDS011;5284;50.446;7.904;2022-09-12T10:13:26;19.42;;;9.90;;
10473;SDS011;5284;50.446;7.904;2022-09-12T10:18:34;17.33;;;10.50;;
10473;SDS011;5284;50.446;7.904;2022-09-12T10:23:39;11.88;;;8.93;;
10473;SDS011;5284;50.446;7.904;2022-09-12T10:28:46;14.88;;;8.13;;
10473;SDS011;5284;50.446;7.904;2022-09-12T10:33:52;25.15;;;9.20;;
10473;SDS011;5284;50.446;7.904;2022-09-12T10:38:56;14.93;;;8.68;;
10473;SDS011;5284;50.446;7.904;2022-09-12T10:44:07;13.07;;;9.33;;
10473;SDS011;5284;50.446;7.904;2022-09-12T10:49:20;13.68;;;8.85;;
10473;SDS011;5284;50.446;7.904;2022-09-12T10:54:40;14.02;;;8.82;;
10473;SDS011;5284;50.446;7.904;2022-09-12T10:59:52;10.80;;;7.55;;
10473;SDS011;5284;50.446;7.904;2022-09-12T11:05:05;11.38;;;7.00;;
10473;SDS011;5284;50.446;7.904;2022-09-12T11:10:23;14.63;;;7.15;;
10473;SDS011;5284;50.446;7.904;2022-09-12T11:15:51;11.35;;;7.20;;
10473;SDS011;5284;50.446;7.904;2022-09-12T11:21:08;13.50;;;7.90;;
10473;SDS011;5284;50.446;7.904;2022-09-12T11:26:24;13.45;;;6.93;;
10473;SDS011;5284;50.446;7.904;2022-09-12T11:31:41;9.25;;;6.32;;
10473;SDS011;5284;50.446;7.904;2022-09-12T11:36:56;7.40;;;5.10;;
10473;SDS011;5284;50.446;7.904;2022-09-12T11:42:19;7.85;;;5.38;;
10473;SDS011;5284;50.446;7.904;2022-09-12T11:47:31;12.45;;;6.28;;
10473;SDS011;5284;50.446;7.904;2022-09-12T11:52:37;7.57;;;4.80;;
10473;SDS011;5284;50.446;7.904;2022-09-12T11:57:41;9.98;;;4.88;;
10473;SDS011;5284;50.446;7.904;2022-09-12T12:02:49;8.13;;;4.73;;
10473;SDS011;5284;50.446;7.904;2022-09-12T12:07:59;9.73;;;5.22;;
10473;SDS011;5284;50.446;7.904;2022-09-12T12:13:05;6.55;;;4.57;;
10473;SDS011;5284;50.446;7.904;2022-09-12T12:18:16;6.28;;;4.40;;
10473;SDS011;5284;50.446;7.904;2022-09-12T12:23:24;6.30;;;4.25;;
10473;SDS011;5284;50.446;7.904;2022-09-12T12:34:18;12.55;;;4.75;;
10473;SDS011;5284;50.446;7.904;2022-09-12T12:45:02;5.70;;;3.30;;
10473;SDS011;5284;50.446;7.904;2022-09-12T12:50:10;6.40;;;3.63;;
10473;SDS011;5284;50.446;7.904;2022-09-12T12:55:47;14.02;;;3.58;;
10473;SDS011;5284;50.446;7.904;2022-09-12T13:01:01;5.90;;;3.33;;
10473;SDS011;5284;50.446;7.904;2022-09-12T13:06:20;5.80;;;3.63;;
10473;SDS011;5284;50.446;7.904;2022-09-12T13:11:32;6.75;;;2.80;;
10473;SDS011;5284;50.446;7.904;2022-09-12T13:16:38;10.45;;;2.85;;
10473;SDS011;5284;50.446;7.904;2022-09-12T13:21:58;6.30;;;2.88;;
10473;SDS011;5284;50.446;7.904;2022-09-12T13:27:02;3.92;;;2.80;;
10473;SDS011;5284;50.446;7.904;2022-09-12T13:32:05;3.53;;;2.80;;
10473;SDS011;5284;50.446;7.904;2022-09-12T13:37:13;2.92;;;2.40;;
10473;SDS011;5284;50.446;7.904;2022-09-12T13:42:31;4.03;;;2.55;;
10473;SDS011;5284;50.446;7.904;2022-09-12T13:47:44;3.20;;;2.45;;
10473;SDS011;5284;50.446;7.904;2022-09-12T13:52:51;6.85;;;2.60;;
10473;SDS011;5284;50.446;7.904;2022-09-12T13:57:57;5.13;;;2.75;;
10473;SDS011;5284;50.446;7.904;2022-09-12T14:03:08;3.67;;;2.53;;
10473;SDS011;5284;50.446;7.904;2022-09-12T14:08:45;4.68;;;2.67;;
10473;SDS011;5284;50.446;7.904;2022-09-12T14:13:48;3.00;;;2.60;;
10473;SDS011;5284;50.446;7.904;2022-09-12T14:18:52;4.93;;;3.17;;
10473;SDS011;5284;50.446;7.904;2022-09-12T14:23:57;4.20;;;2.85;;
10473;SDS011;5284;50.446;7.904;2022-09-12T14:29:01;4.03;;;3.08;;
10473;SDS011;5284;50.446;7.904;2022-09-12T14:34:07;11.43;;;3.30;;
10473;SDS011;5284;50.446;7.904;2022-09-12T14:39:19;6.30;;;3.33;;
10473;SDS011;5284;50.446;7.904;2022-09-12T14:44:25;4.75;;;2.92;;
10473;SDS011;5284;50.446;7.904;2022-09-12T14:49:30;4.70;;;2.88;;
10473;SDS011;5284;50.446;7.904;2022-09-12T14:54:40;3.47;;;2.90;;
10473;SDS011;5284;50.446;7.904;2022-09-12T15:00:04;5.47;;;3.50;;
10473;SDS011;5284;50.446;7.904;2022-09-12T15:05:22;4.45;;;2.92;;
10473;SDS011;5284;50.446;7.904;2022-09-12T15:10:29;5.20;;;3.40;;
10473;SDS011;5284;50.446;7.904;2022-09-12T15:15:34;4.35;;;3.05;;
10473;SDS011;5284;50.446;7.904;2022-09-12T15:20:37;6.13;;;2.88;;
10473;SDS011;5284;50.446;7.904;2022-09-12T15:25:42;3.72;;;3.10;;
10473;SDS011;5284;50.446;7.904;2022-09-12T15:30:45;8.82;;;3.05;;
10473;SDS011;5284;50.446;7.904;2022-09-12T15:35:49;10.02;;;3.55;;
10473;SDS011;5284;50.446;7.904;2022-09-12T15:40:55;5.78;;;2.65;;
10473;SDS011;5284;50.446;7.904;2022-09-12T15:45:57;12.75;;;3.08;;
10473;SDS011;5284;50.446;7.904;2022-09-12T15:51:04;4.18;;;2.97;;
10473;SDS011;5284;50.446;7.904;2022-09-12T15:56:14;7.50;;;2.60;;
10473;SDS011;5284;50.446;7.904;2022-09-12T16:01:17;3.83;;;2.33;;
10473;SDS011;5284;50.446;7.904;2022-09-12T16:06:20;7.38;;;3.30;;
10473;SDS011;5284;50.446;7.904;2022-09-12T16:11:25;6.07;;;2.65;;
10473;SDS011;5284;50.446;7.904;2022-09-12T16:16:28;3.35;;;2.30;;
10473;SDS011;5284;50.446;7.904;2022-09-12T16:21:31;3.22;;;2.35;;
10473;SDS011;5284;50.446;7.904;2022-09-12T16:26:35;4.68;;;2.40;;
10473;SDS011;5284;50.446;7.904;2022-09-12T16:31:39;3.45;;;2.40;;
10473;SDS011;5284;50.446;7.904;2022-09-12T16:36:42;5.47;;;2.65;;
10473;SDS011;5284;50.446;7.904;2022-09-12T16:41:46;5.13;;;2.35;;
10473;SDS011;5284;50.446;7.904;2022-09-12T16:46:49;6.13;;;2.30;;
10473;SDS011;5284;50.446;7.904;2022-09-12T16:51:52;6.13;;;2.33;;
10473;SDS011;5284;50.446;7.904;2022-09-12T16:56:56;5.05;;;2.50;;
10473;SDS011;5284;50.446;7.904;2022-09-12T17:02:00;5.10;;;3.13;;
10473;SDS011;5284;50.446;7.904;2022-09-12T17:07:03;4.10;;;2.90;;
10473;SDS011;5284;50.446;7.904;2022-09-12T17:12:07;5.88;;;3.00;;
10473;SDS011;5284;50.446;7.904;2022-09-12T17:17:10;5.88;;;2.60;;
10473;SDS011;5284;50.446;7.904;2022-09-12T17:22:13;10.02;;;3.25;;
10473;SDS011;5284;50.446;7.904;2022-09-12T17:27:17;4.60;;;3.35;;
10473;SDS011;5284;50.446;7.904;2022-09-12T17:32:22;6.97;;;4.50;;
10473;SDS011;5284;50.446;7.904;2022-09-12T17:37:24;7.82;;;4.47;;
10473;SDS011;5284;50.446;7.904;2022-09-12T17:42:29;11.73;;;3.67;;
10473;SDS011;5284;50.446;7.904;2022-09-12T17:47:32;4.20;;;3.28;;
10473;SDS011;5284;50.446;7.904;2022-09-12T17:52:35;9.48;;;3.35;;
10473;SDS011;5284;50.446;7.904;2022-09-12T17:57:40;20.45;;;3.65;;
10473;SDS011;5284;50.446;7.904;2022-09-12T18:02:44;7.65;;;3.55;;
10473;SDS011;5284;50.446;7.904;2022-09-12T18:07:47;6.28;;;2.92;;
10473;SDS011;5284;50.446;7.904;2022-09-12T18:12:51;4.95;;;2.90;;
10473;SDS011;5284;50.446;7.904;2022-09-12T18:17:54;10.65;;;2.53;;
10473;SDS011;5284;50.446;7.904;2022-09-12T18:22:57;4.50;;;3.03;;
10473;SDS011;5284;50.446;7.904;2022-09-12T18:28:02;6.05;;;3.13;;
10473;SDS011;5284;50.446;7.904;2022-09-12T18:33:09;5.32;;;3.15;;
10473;SDS011;5284;50.446;7.904;2022-09-12T18:38:12;7.38;;;4.13;;
10473;SDS011;5284;50.446;7.904;2022-09-12T18:43:16;10.90;;;3.75;;
10473;SDS011;5284;50.446;7.904;2022-09-12T18:48:19;6.95;;;3.70;;
10473;SDS011;5284;50.446;7.904;2022-09-12T18:53:22;6.20;;;3.60;;
10473;SDS011;5284;50.446;7.904;2022-09-12T18:58:27;6.38;;;3.30;;
10473;SDS011;5284;50.446;7.904;2022-09-12T19:03:30;8.90;;;3.30;;
10473;SDS011;5284;50.446;7.904;2022-09-12T19:08:33;8.20;;;3.83;;
10473;SDS011;5284;50.446;7.904;2022-09-12T19:13:38;4.28;;;3.22;;
10473;SDS011;5284;50.446;7.904;2022-09-12T19:18:42;8.48;;;5.10;;
10473;SDS011;5284;50.446;7.904;2022-09-12T19:23:47;6.07;;;3.95;;
10473;SDS011;5284;50.446;7.904;2022-09-12T19:28:51;7.60;;;4.25;;
10473;SDS011;5284;50.446;7.904;2022-09-12T19:33:57;5.75;;;4.15;;
10473;SDS011;5284;50.446;7.904;2022-09-12T19:39:02;7.05;;;4.32;;
10473;SDS011;5284;50.446;7.904;2022-09-12T19:44:07;8.05;;;4.47;;
10473;SDS011;5284;50.446;7.904;2022-09-12T19:49:10;6.13;;;4.10;;
10473;SDS011;5284;50.446;7.904;2022-09-12T19:54:14;6.88;;;4.05;;
10473;SDS011;5284;50.446;7.904;2022-09-12T19:59:18;5.68;;;4.10;;
10473;SDS011;5284;50.446;7.904;2022-09-12T20:04:21;5.72;;;3.80;;
10473;SDS011;5284;50.446;7.904;2022-09-12T20:09:24;8.18;;;3.92;;
10473;SDS011;5284;50.446;7.904;2022-09-12T20:14:28;7.10;;;4.40;;
10473;SDS011;5284;50.446;7.904;2022-09-12T20:19:32;6.50;;;4.50;;
10473;SDS011;5284;50.446;7.904;2022-09-12T20:24:35;5.90;;;4.68;;
10473;SDS011;5284;50.446;7.904;2022-09-12T20:29:39;7.40;;;4.78;;
10473;SDS011;5284;50.446;7.904;2022-09-12T20:34:42;10.07;;;4.32;;
10473;SDS011;5284;50.446;7.904;2022-09-12T20:39:45;6.68;;;4.28;;
10473;SDS011;5284;50.446;7.904;2022-09-12T20:44:52;8.85;;;4.43;;
10473;SDS011;5284;50.446;7.904;2022-09-12T20:49:56;8.10;;;4.75;;
10473;SDS011;5284;50.446;7.904;2022-09-12T20:54:59;13.07;;;4.97;;
10473;SDS011;5284;50.446;7.904;2022-09-12T21:00:03;9.25;;;5.07;;
10473;SDS011;5284;50.446;7.904;2022-09-12T21:10:11;8.93;;;4.30;;
10473;SDS011;5284;50.446;7.904;2022-09-12T21:15:15;11.38;;;4.53;;
10473;SDS011;5284;50.446;7.904;2022-09-12T21:20:18;10.57;;;5.40;;
10473;SDS011;5284;50.446;7.904;2022-09-12T21:25:22;7.90;;;5.18;;
10473;SDS011;5284;50.446;7.904;2022-09-12T21:30:26;8.10;;;5.43;;
10473;SDS011;5284;50.446;7.904;2022-09-12T21:35:30;8.30;;;4.65;;
10473;SDS011;5284;50.446;7.904;2022-09-12T21:40:35;15.00;;;5.25;;
10473;SDS011;5284;50.446;7.904;2022-09-12T21:45:39;9.82;;;5.05;;
10473;SDS011;5284;50.446;7.904;2022-09-12T21:50:42;7.43;;;5.38;;
10473;SDS011;5284;50.446;7.904;2022-09-12T21:55:51;6.55;;;4.25;;
10473;SDS011;5284;50.446;7.904;2022-09-12T22:00:55;11.25;;;5.90;;
10473;SDS011;5284;50.446;7.904;2022-09-12T22:05:58;8.25;;;5.15;;
10473;SDS011;5284;50.446;7.904;2022-09-12T22:11:03;12.50;;;5.00;;
10473;SDS011;5284;50.446;7.904;2022-09-12T22:16:11;13.30;;;5.30;;
10473;SDS011;5284;50.446;7.904;2022-09-12T22:21:14;6.90;;;4.63;;
10473;SDS011;5284;50.446;7.904;2022-09-12T22:26:19;12.45;;;5.45;;
10473;SDS011;5284;50.446;7.904;2022-09-12T22:31:23;8.25;;;5.43;;
10473;SDS011;5284;50.446;7.904;2022-09-12T22:36:27;11.48;;;5.85;;
10473;SDS011;5284;50.446;7.904;2022-09-12T22:41:32;10.48;;;5.47;;
10473;SDS011;5284;50.446;7.904;2022-09-12T22:46:36;17.88;;;6.13;;
10473;SDS011;5284;50.446;7.904;2022-09-12T22:51:40;10.80;;;4.95;;
10473;SDS011;5284;50.446;7.904;2022-09-12T22:56:42;12.80;;;5.70;;
10473;SDS011;5284;50.446;7.904;2022-09-12T23:01:47;9.98;;;6.15;;
10473;SDS011;5284;50.446;7.904;2022-09-12T23:06:49;12.15;;;6.28;;
10473;SDS011;5284;50.446;7.904;2022-09-12T23:11:53;16.30;;;6.30;;
10473;SDS011;5284;50.446;7.904;2022-09-12T23:16:57;12.13;;;5.00;;
10473;SDS011;5284;50.446;7.904;2022-09-12T23:22:00;10.93;;;5.78;;
10473;SDS011;5284;50.446;7.904;2022-09-12T23:27:03;6.88;;;4.93;;
10473;SDS011;5284;50.446;7.904;2022-09-12T23:32:07;9.32;;;5.38;;
10473;SDS011;5284;50.446;7.904;2022-09-12T23:37:11;10.32;;;5.45;;
10473;SDS011;5284;50.446;7.904;2022-09-12T23:42:13;14.77;;;5.88;;
10473;SDS011;5284;50.446;7.904;2022-09-12T23:47:20;7.60;;;5.65;;
10473;SDS011;5284;50.446;7.904;2022-09-12T23:52:23;8.70;;;5.95;;
10473;SDS011;5284;50.446;7.904;2022-09-12T23:57:25;8.70;;;5.53;;
